Time;durP1;ratioP1;P1;durP2;ratioP2;P2;SDS_P1;SDS_P2;PMS_P1;PMS_P2;Temp;Humidity;BMP_temperature;BMP_pressure;BME280_temperature;BME280_humidity;BME280_pressure;Samples;Min_cycle;Max_cycle;Signal;HPM_P1;HPM_P2
2021/12/25 00:01:47;;;;;;;15.18;4.22;;;;;;;;;;2611266;53;21057;-77
2021/12/25 00:04:15;;;;;;;8.07;4.62;;;;;;;;;;2361078;57;21049;-78
2021/12/25 00:06:42;;;;;;;13.20;6.57;;;;;;;;;;2611768;53;21038;-77
2021/12/25 00:09:09;;;;;;;17.35;6.55;;;;;;;;;;2610941;53;21050;-77
2021/12/25 00:11:36;;;;;;;13.98;6.70;;;;;;;;;;2610897;53;21048;-77
2021/12/25 00:14:10;;;;;;;15.32;7.15;;;;;;;;;;2610988;53;21046;-77
2021/12/25 00:16:37;;;;;;;17.25;6.95;;;;;;;;;;2611621;53;21045;-77
2021/12/25 00:19:04;;;;;;;24.17;8.43;;;;;;;;;;2610523;53;21605;-77
2021/12/25 00:21:31;;;;;;;16.00;7.47;;;;;;;;;;2610729;53;21633;-77
2021/12/25 00:23:58;;;;;;;20.10;8.43;;;;;;;;;;2360544;57;21038;-77
2021/12/25 00:26:36;;;;;;;15.77;7.97;;;;;;;;;;2610818;53;21594;-77
2021/12/25 00:29:26;;;;;;;18.60;8.63;;;;;;;;;;2610538;53;21068;-77
2021/12/25 00:32:08;;;;;;;21.17;8.20;;;;;;;;;;2360432;57;21041;-77
2021/12/25 00:34:35;;;;;;;20.88;8.63;;;;;;;;;;2360410;57;21113;-77
2021/12/25 00:37:03;;;;;;;18.20;8.63;;;;;;;;;;2360360;57;21046;-77
2021/12/25 00:39:30;;;;;;;27.10;8.75;;;;;;;;;;2360220;57;21045;-77
2021/12/25 00:41:57;;;;;;;22.77;9.77;;;;;;;;;;2360379;57;21057;-77
2021/12/25 00:44:24;;;;;;;19.00;8.15;;;;;;;;;;2610738;53;21037;-76
2021/12/25 00:46:51;;;;;;;18.60;8.18;;;;;;;;;;2610773;53;21045;-77
2021/12/25 00:49:18;;;;;;;21.20;9.32;;;;;;;;;;2610079;53;21037;-77
2021/12/25 00:51:45;;;;;;;21.90;8.80;;;;;;;;;;2610988;53;21511;-77
2021/12/25 00:54:13;;;;;;;19.12;8.88;;;;;;;;;;2360192;57;21046;-76
2021/12/25 00:56:40;;;;;;;21.62;9.63;;;;;;;;;;2360588;57;21377;-77
2021/12/25 00:59:07;;;;;;;23.25;9.38;;;;;;;;;;2610113;53;21038;-77
2021/12/25 01:01:34;;;;;;;24.45;10.45;;;;;;;;;;2610818;53;21561;-76
2021/12/25 01:04:01;;;;;;;28.67;11.98;;;;;;;;;;2360036;57;21101;-77
2021/12/25 01:06:28;;;;;;;26.17;10.52;;;;;;;;;;2360185;57;21046;-77
2021/12/25 01:08:55;;;;;;;28.15;10.20;;;;;;;;;;2360004;57;21141;-76
2021/12/25 01:11:23;;;;;;;24.73;10.02;;;;;;;;;;2610185;53;21057;-76
2021/12/25 01:13:57;;;;;;;21.20;9.20;;;;;;;;;;2610349;53;21026;-77
2021/12/25 01:16:43;;;;;;;17.55;8.02;;;;;;;;;;2360544;57;21112;-76
2021/12/25 01:19:40;;;;;;;23.12;9.43;;;;;;;;;;2360014;57;21045;-77
2021/12/25 01:25:25;;;;;;;18.25;8.60;;;;;;;;;;2358418;57;21136;-76
2021/12/25 01:30:51;;;;;;;22.40;8.82;;;;;;;;;;2359828;57;21130;-77
2021/12/25 01:33:32;;;;;;;15.55;8.18;;;;;;;;;;2360086;57;21046;-76
2021/12/25 01:36:29;;;;;;;16.55;7.43;;;;;;;;;;2360119;57;21041;-77
2021/12/25 01:39:05;;;;;;;16.73;8.23;;;;;;;;;;2609955;53;21100;-76
2021/12/25 01:41:59;;;;;;;19.60;8.70;;;;;;;;;;2610679;53;21585;-77
2021/12/25 01:49:58;;;;;;;18.45;7.43;;;;;;;;;;2359822;57;21593;-77
2021/12/25 01:52:26;;;;;;;14.52;6.32;;;;;;;;;;2359828;57;21042;-76
2021/12/25 01:54:54;;;;;;;13.62;6.15;;;;;;;;;;2610388;53;21121;-76
2021/12/25 01:57:22;;;;;;;12.85;6.05;;;;;;;;;;2610678;53;21078;-76
2021/12/25 01:59:49;;;;;;;10.18;5.53;;;;;;;;;;2609847;53;21172;-77
2021/12/25 02:02:16;;;;;;;9.90;5.97;;;;;;;;;;2610405;53;21478;-77
2021/12/25 02:04:43;;;;;;;11.43;5.45;;;;;;;;;;2359993;57;21037;-76
2021/12/25 02:07:10;;;;;;;13.52;6.28;;;;;;;;;;2610159;53;21097;-76
2021/12/25 02:09:37;;;;;;;10.63;5.20;;;;;;;;;;2359926;57;21081;-76
2021/12/25 02:12:05;;;;;;;8.32;5.18;;;;;;;;;;2360047;57;21168;-76
2021/12/25 02:14:32;;;;;;;11.38;5.00;;;;;;;;;;2610010;53;21045;-76
2021/12/25 02:17:07;;;;;;;9.88;5.05;;;;;;;;;;2360105;57;21038;-76
2021/12/25 02:19:39;;;;;;;7.32;4.35;;;;;;;;;;2359609;57;21057;-76
2021/12/25 02:22:08;;;;;;;8.40;4.97;;;;;;;;;;2360531;57;21052;-76
2021/12/25 02:24:36;;;;;;;6.50;4.20;;;;;;;;;;2360204;57;21049;-76
2021/12/25 02:27:04;;;;;;;11.73;4.30;;;;;;;;;;2360136;57;21077;-76
2021/12/25 02:29:32;;;;;;;7.53;4.28;;;;;;;;;;2609506;53;21106;-76
2021/12/25 02:31:59;;;;;;;11.40;3.65;;;;;;;;;;2360183;57;21041;-76
2021/12/25 02:34:26;;;;;;;7.32;3.87;;;;;;;;;;2610751;53;21110;-76
2021/12/25 02:36:53;;;;;;;6.15;3.30;;;;;;;;;;2360136;57;21673;-76
2021/12/25 02:39:20;;;;;;;8.68;3.90;;;;;;;;;;2610026;53;21570;-77
2021/12/25 02:41:47;;;;;;;6.03;3.30;;;;;;;;;;2360203;57;21018;-76
2021/12/25 02:44:14;;;;;;;5.57;3.22;;;;;;;;;;2360284;57;21764;-75
2021/12/25 02:46:41;;;;;;;5.55;3.28;;;;;;;;;;2360338;57;21046;-76
2021/12/25 02:49:11;;;;;;;7.57;3.83;;;;;;;;;;2610239;53;21041;-76
2021/12/25 02:51:38;;;;;;;5.30;3.10;;;;;;;;;;2360005;57;21120;-76
2021/12/25 02:54:05;;;;;;;7.18;2.92;;;;;;;;;;2610488;53;21045;-76
2021/12/25 02:56:32;;;;;;;4.55;3.10;;;;;;;;;;2610113;53;21038;-76
2021/12/25 02:58:59;;;;;;;4.12;3.17;;;;;;;;;;2610330;53;21042;-76
2021/12/25 03:01:27;;;;;;;4.78;3.15;;;;;;;;;;2610262;53;21102;-76
2021/12/25 03:03:54;;;;;;;6.18;2.97;;;;;;;;;;2360241;57;21105;-75
2021/12/25 03:06:22;;;;;;;5.75;3.12;;;;;;;;;;2360261;57;21033;-76
2021/12/25 03:08:49;;;;;;;5.40;3.62;;;;;;;;;;2610544;53;21045;-76
2021/12/25 03:11:16;;;;;;;7.00;3.72;;;;;;;;;;2610320;53;21120;-77
2021/12/25 03:13:55;;;;;;;5.25;3.40;;;;;;;;;;2360079;57;21089;-76
2021/12/25 03:16:22;;;;;;;7.15;3.33;;;;;;;;;;2610530;53;21307;-76
2021/12/25 03:18:52;;;;;;;5.18;3.15;;;;;;;;;;2610136;53;22146;-76
2021/12/25 03:21:19;;;;;;;7.15;3.50;;;;;;;;;;2360023;57;21080;-76
2021/12/25 03:23:47;;;;;;;7.78;3.80;;;;;;;;;;2359992;57;21018;-77
2021/12/25 03:26:14;;;;;;;5.62;3.72;;;;;;;;;;2610260;53;21053;-76
2021/12/25 03:28:43;;;;;;;6.15;4.18;;;;;;;;;;2610571;53;21066;-74
2021/12/25 03:31:15;;;;;;;9.98;3.15;;;;;;;;;;2359902;57;21109;-76
2021/12/25 03:33:43;;;;;;;3.97;3.00;;;;;;;;;;2611106;53;21046;-76
2021/12/25 03:36:10;;;;;;;6.57;3.03;;;;;;;;;;2610488;53;21053;-76
2021/12/25 03:38:37;;;;;;;6.72;3.08;;;;;;;;;;2610696;53;21049;-76
2021/12/25 03:41:06;;;;;;;6.60;3.60;;;;;;;;;;2360071;57;21057;-76
2021/12/25 03:43:34;;;;;;;5.53;3.12;;;;;;;;;;2360068;57;21053;-75
2021/12/25 03:46:01;;;;;;;6.10;3.35;;;;;;;;;;2610692;53;21056;-76
2021/12/25 03:48:56;;;;;;;4.35;2.97;;;;;;;;;;2610460;53;21121;-76
2021/12/25 03:59:41;;;;;;;4.40;3.05;;;;;;;;;;2359964;57;21061;-74
2021/12/25 04:02:15;;;;;;;4.20;3.03;;;;;;;;;;2360218;57;21625;-76
2021/12/25 04:04:46;;;;;;;4.82;2.78;;;;;;;;;;2360068;57;21064;-76
2021/12/25 04:07:26;;;;;;;4.72;3.22;;;;;;;;;;2360320;57;21521;-76
2021/12/25 04:09:59;;;;;;;3.72;3.12;;;;;;;;;;2359732;57;21133;-76
2021/12/25 04:12:26;;;;;;;5.95;3.45;;;;;;;;;;2360110;57;21053;-76
2021/12/25 04:14:53;;;;;;;4.75;3.67;;;;;;;;;;2360475;57;21120;-76
2021/12/25 04:17:20;;;;;;;4.40;3.20;;;;;;;;;;2360071;57;21041;-77
2021/12/25 04:19:47;;;;;;;4.47;3.03;;;;;;;;;;2359857;57;21041;-76
2021/12/25 04:22:18;;;;;;;5.00;3.03;;;;;;;;;;2359964;57;21117;-76
2021/12/25 04:24:47;;;;;;;5.40;3.03;;;;;;;;;;2610508;53;21081;-76
2021/12/25 04:27:16;;;;;;;4.57;3.20;;;;;;;;;;2610106;53;21057;-76
2021/12/25 04:29:48;;;;;;;5.40;3.12;;;;;;;;;;2360018;57;21053;-76
2021/12/25 04:32:50;;;;;;;4.15;3.08;;;;;;;;;;2360076;57;21310;-77
2021/12/25 05:05:46;;;;;;;6.30;3.70;;;;;;;;;;2337025;57;27720;-78
2021/12/25 05:08:13;;;;;;;7.30;3.50;;;;;;;;;;2348957;57;21029;-78
2021/12/25 05:10:40;;;;;;;4.97;3.40;;;;;;;;;;2294502;55;21096;-80
2021/12/25 05:13:07;;;;;;;8.38;4.43;;;;;;;;;;2247252;60;21073;-79
2021/12/25 05:15:34;;;;;;;7.35;3.37;;;;;;;;;;2474552;55;21069;-81
2021/12/25 05:18:01;;;;;;;6.90;3.47;;;;;;;;;;2474527;56;21058;-80
2021/12/25 05:20:28;;;;;;;8.23;3.70;;;;;;;;;;2263165;59;21204;-81
2021/12/25 05:22:55;;;;;;;6.15;3.05;;;;;;;;;;2274122;59;21091;-80
2021/12/25 05:25:23;;;;;;;5.28;3.20;;;;;;;;;;2505437;55;21138;-82
2021/12/25 05:27:50;;;;;;;6.78;3.62;;;;;;;;;;2505447;55;21106;-82
2021/12/25 05:30:18;;;;;;;9.55;3.05;;;;;;;;;;2505227;55;21127;-81
2021/12/25 05:32:45;;;;;;;5.97;3.85;;;;;;;;;;2504722;55;21062;-81
2021/12/25 05:35:13;;;;;;;4.32;2.85;;;;;;;;;;2505318;55;21094;-81
2021/12/25 05:37:39;;;;;;;5.85;3.50;;;;;;;;;;2273826;59;21066;-82
2021/12/25 05:40:08;;;;;;;6.62;3.37;;;;;;;;;;2273914;59;21075;-80
2021/12/25 05:42:35;;;;;;;5.87;4.43;;;;;;;;;;2273653;59;21051;-81
2021/12/25 05:45:02;;;;;;;5.70;3.62;;;;;;;;;;2274672;59;21130;-83
2021/12/25 05:47:29;;;;;;;5.57;3.10;;;;;;;;;;2273457;59;21059;-81
2021/12/25 05:49:56;;;;;;;7.90;3.60;;;;;;;;;;2503219;55;21623;-81
2021/12/25 05:52:23;;;;;;;3.37;3.05;;;;;;;;;;2505190;55;21070;-81
2021/12/25 05:54:50;;;;;;;6.75;3.60;;;;;;;;;;2273816;59;21574;-82
2021/12/25 05:57:17;;;;;;;6.53;3.15;;;;;;;;;;2504938;55;21098;-81
2021/12/25 05:59:44;;;;;;;5.90;3.45;;;;;;;;;;2504659;55;21035;-79
2021/12/25 06:02:12;;;;;;;7.62;3.00;;;;;;;;;;2273795;59;21070;-81
2021/12/25 06:04:39;;;;;;;5.57;3.05;;;;;;;;;;2505403;55;21090;-81
2021/12/25 06:07:06;;;;;;;7.85;3.37;;;;;;;;;;2505162;55;21158;-81
2021/12/25 06:09:33;;;;;;;7.85;3.55;;;;;;;;;;2504988;55;21520;-82
2021/12/25 06:12:00;;;;;;;5.50;3.00;;;;;;;;;;2504939;55;21079;-80
2021/12/25 06:14:27;;;;;;;11.65;3.50;;;;;;;;;;2273640;59;21614;-81
2021/12/25 06:16:56;;;;;;;9.00;3.22;;;;;;;;;;2273018;59;21050;-81
2021/12/25 06:19:23;;;;;;;6.37;3.03;;;;;;;;;;2502941;55;21055;-80
2021/12/25 06:21:50;;;;;;;3.70;2.70;;;;;;;;;;2502986;55;21570;-82
2021/12/25 06:24:17;;;;;;;5.10;3.30;;;;;;;;;;2272176;59;21650;-80
2021/12/25 06:26:44;;;;;;;5.22;3.20;;;;;;;;;;2503754;55;21142;-82
2021/12/25 06:29:14;;;;;;;8.00;3.40;;;;;;;;;;2503416;55;21071;-81
2021/12/25 06:31:41;;;;;;;7.05;2.92;;;;;;;;;;2273126;59;21067;-81
2021/12/25 06:34:08;;;;;;;6.32;2.83;;;;;;;;;;2503691;55;21150;-80
2021/12/25 06:36:35;;;;;;;4.40;3.03;;;;;;;;;;2503859;55;21071;-81
2021/12/25 06:39:02;;;;;;;7.18;3.60;;;;;;;;;;2272743;59;21063;-81
2021/12/25 06:41:29;;;;;;;5.22;3.22;;;;;;;;;;2273109;59;21086;-82
2021/12/25 06:43:56;;;;;;;4.50;3.50;;;;;;;;;;2273014;59;21118;-81
2021/12/25 06:46:23;;;;;;;4.50;2.83;;;;;;;;;;2273095;59;21173;-81
2021/12/25 06:48:50;;;;;;;4.25;3.22;;;;;;;;;;2272671;59;21066;-81
2021/12/25 06:51:17;;;;;;;6.15;3.53;;;;;;;;;;2272775;59;21074;-81
2021/12/25 06:53:44;;;;;;;7.57;3.78;;;;;;;;;;2504219;55;21582;-82
2021/12/25 06:56:11;;;;;;;4.70;3.37;;;;;;;;;;2273007;59;21051;-82
2021/12/25 06:58:38;;;;;;;4.82;3.45;;;;;;;;;;2273079;59;21135;-81
2021/12/25 07:01:05;;;;;;;5.87;3.70;;;;;;;;;;2272615;59;21126;-82
2021/12/25 07:03:34;;;;;;;5.85;3.30;;;;;;;;;;2272487;59;21055;-81
2021/12/25 07:06:02;;;;;;;7.22;3.78;;;;;;;;;;2503952;55;21122;-80
2021/12/25 07:08:28;;;;;;;9.15;3.45;;;;;;;;;;2504024;55;21055;-83
2021/12/25 07:10:55;;;;;;;6.62;3.40;;;;;;;;;;2272710;59;21118;-81
2021/12/25 07:13:22;;;;;;;4.70;3.37;;;;;;;;;;2272249;59;21083;-80
2021/12/25 07:15:49;;;;;;;11.57;3.78;;;;;;;;;;2272519;59;21721;-81
2021/12/25 07:18:16;;;;;;;5.07;3.28;;;;;;;;;;2503370;55;21654;-81
2021/12/25 07:20:45;;;;;;;7.72;3.40;;;;;;;;;;2272610;59;21603;-82
2021/12/25 07:23:12;;;;;;;7.62;3.58;;;;;;;;;;2272641;59;21079;-81
2021/12/25 07:25:39;;;;;;;7.60;3.80;;;;;;;;;;2503469;55;21099;-79
2021/12/25 07:28:06;;;;;;;4.78;3.55;;;;;;;;;;2272292;59;21602;-82
2021/12/25 07:30:33;;;;;;;6.60;3.75;;;;;;;;;;2502886;55;21532;-80
2021/12/25 07:33:00;;;;;;;8.35;3.87;;;;;;;;;;2272380;59;21059;-81
2021/12/25 07:35:27;;;;;;;6.62;3.60;;;;;;;;;;2272591;59;21058;-78
2021/12/25 07:37:56;;;;;;;11.27;4.35;;;;;;;;;;2272026;59;21122;-80
2021/12/25 07:40:23;;;;;;;9.00;4.15;;;;;;;;;;2502965;55;21063;-80
2021/12/25 07:42:50;;;;;;;8.40;4.15;;;;;;;;;;2502986;55;21152;-80
2021/12/25 07:45:17;;;;;;;10.73;5.10;;;;;;;;;;2502684;55;21127;-78
2021/12/25 07:47:49;;;;;;;8.68;6.62;;;;;;;;;;2271978;59;21047;-78
2021/12/25 07:50:16;;;;;;;9.35;5.82;;;;;;;;;;2271697;59;21134;-81
2021/12/25 07:52:43;;;;;;;8.48;5.15;;;;;;;;;;2272327;59;21119;-79
2021/12/25 07:55:10;;;;;;;7.32;4.87;;;;;;;;;;2272545;59;21147;-79
2021/12/25 07:57:37;;;;;;;9.68;5.15;;;;;;;;;;2272380;59;21130;-81
2021/12/25 08:00:08;;;;;;;8.13;5.10;;;;;;;;;;2271919;59;21047;-80
2021/12/25 08:02:35;;;;;;;8.00;5.47;;;;;;;;;;2272465;59;21070;-82
2021/12/25 08:05:02;;;;;;;7.87;4.87;;;;;;;;;;2272530;59;21095;-81
2021/12/25 08:07:29;;;;;;;9.75;4.68;;;;;;;;;;2272601;59;21130;-81
2021/12/25 08:10:03;;;;;;;6.65;5.12;;;;;;;;;;2272191;59;21083;-82
2021/12/25 08:12:30;;;;;;;9.68;5.35;;;;;;;;;;2502909;55;21115;-79
2021/12/25 08:14:57;;;;;;;8.85;5.12;;;;;;;;;;2271647;59;21078;-80
2021/12/25 08:17:24;;;;;;;8.60;5.25;;;;;;;;;;2502985;55;21114;-79
2021/12/25 08:19:51;;;;;;;10.90;5.78;;;;;;;;;;2271682;59;22155;-81
2021/12/25 08:22:18;;;;;;;9.95;5.60;;;;;;;;;;2272916;59;21135;-81
2021/12/25 08:24:46;;;;;;;9.10;5.47;;;;;;;;;;2503696;55;21074;-79
2021/12/25 08:27:13;;;;;;;9.48;4.72;;;;;;;;;;2503316;55;21218;-80
2021/12/25 08:29:40;;;;;;;6.55;4.45;;;;;;;;;;2503471;55;21055;-81
2021/12/25 08:32:08;;;;;;;8.82;4.50;;;;;;;;;;2272936;59;21282;-80
2021/12/25 08:34:35;;;;;;;9.45;4.80;;;;;;;;;;2272396;59;21107;-79
2021/12/25 08:37:02;;;;;;;7.10;4.90;;;;;;;;;;2272209;59;21095;-79
2021/12/25 08:39:29;;;;;;;11.70;5.00;;;;;;;;;;2503352;55;21531;-80
2021/12/25 08:42:01;;;;;;;8.35;4.40;;;;;;;;;;2501582;55;21556;-80
2021/12/25 08:44:34;;;;;;;5.47;4.15;;;;;;;;;;2271182;59;21135;-82
2021/12/25 08:47:04;;;;;;;6.65;4.85;;;;;;;;;;2502094;55;21035;-78
2021/12/25 08:49:32;;;;;;;6.68;4.18;;;;;;;;;;2271996;59;21198;-80
2021/12/25 08:52:00;;;;;;;8.18;5.35;;;;;;;;;;2503284;55;21043;-81
2021/12/25 08:54:28;;;;;;;6.32;4.32;;;;;;;;;;2501537;55;21277;-78
2021/12/25 08:56:55;;;;;;;7.10;4.65;;;;;;;;;;2270227;59;21126;-81
2021/12/25 08:59:22;;;;;;;8.48;4.75;;;;;;;;;;2502775;55;21078;-80
2021/12/25 09:01:49;;;;;;;3.97;3.58;;;;;;;;;;2502389;55;21078;-82
2021/12/25 09:04:16;;;;;;;7.90;5.07;;;;;;;;;;2503585;55;21104;-81
2021/12/25 09:06:43;;;;;;;6.60;4.35;;;;;;;;;;2504042;55;21067;-82
2021/12/25 09:09:10;;;;;;;8.75;4.25;;;;;;;;;;2503640;55;21325;-84
2021/12/25 09:11:37;;;;;;;10.02;4.53;;;;;;;;;;2503565;55;21063;-83
2021/12/25 09:14:04;;;;;;;8.38;4.72;;;;;;;;;;2272726;59;21126;-85
2021/12/25 09:16:31;;;;;;;7.28;4.40;;;;;;;;;;2503045;55;21075;-82
2021/12/25 09:18:58;;;;;;;6.72;4.28;;;;;;;;;;2503381;55;21062;-82
2021/12/25 09:21:25;;;;;;;10.57;5.10;;;;;;;;;;2502840;55;21087;-81
2021/12/25 09:23:52;;;;;;;5.75;4.45;;;;;;;;;;2272746;59;21177;-82
2021/12/25 09:26:19;;;;;;;10.18;4.78;;;;;;;;;;2271790;59;21138;-74
2021/12/25 09:28:47;;;;;;;7.87;4.90;;;;;;;;;;2271011;59;21107;-79
2021/12/25 09:31:14;;;;;;;5.97;4.60;;;;;;;;;;2272673;59;21131;-81
2021/12/25 09:33:41;;;;;;;7.40;4.35;;;;;;;;;;2502336;55;21121;-79
2021/12/25 09:36:08;;;;;;;14.00;5.25;;;;;;;;;;2272722;59;21122;-81
2021/12/25 09:38:35;;;;;;;7.55;5.22;;;;;;;;;;2272859;59;21055;-82
2021/12/25 09:41:04;;;;;;;7.40;4.30;;;;;;;;;;2272761;59;21042;-81
2021/12/25 09:43:31;;;;;;;7.50;5.12;;;;;;;;;;2272689;59;21523;-83
2021/12/25 09:45:58;;;;;;;11.70;6.20;;;;;;;;;;2503277;55;21075;-81
2021/12/25 09:48:25;;;;;;;10.40;5.85;;;;;;;;;;2272822;59;21046;-81
2021/12/25 09:50:53;;;;;;;7.95;5.87;;;;;;;;;;2272339;59;21059;-82
2021/12/25 09:53:20;;;;;;;11.68;7.10;;;;;;;;;;2503731;55;21055;-80
2021/12/25 09:55:48;;;;;;;12.63;7.90;;;;;;;;;;2504131;55;21066;-81
2021/12/25 09:58:15;;;;;;;11.12;7.40;;;;;;;;;;2503124;55;21123;-80
2021/12/25 10:00:43;;;;;;;11.30;7.28;;;;;;;;;;2272811;59;21054;-80
2021/12/25 10:03:10;;;;;;;10.65;7.22;;;;;;;;;;2272529;59;21139;-80
2021/12/25 10:05:38;;;;;;;15.43;7.00;;;;;;;;;;2503419;55;21043;-80
2021/12/25 10:08:07;;;;;;;8.43;6.57;;;;;;;;;;2273139;59;21074;-83
2021/12/25 10:10:40;;;;;;;11.57;6.40;;;;;;;;;;2272719;59;21058;-82
2021/12/25 10:13:17;;;;;;;9.70;5.22;;;;;;;;;;2273055;59;21043;-81
2021/12/25 10:15:44;;;;;;;11.40;4.85;;;;;;;;;;2273132;59;21087;-81
2021/12/25 10:18:11;;;;;;;9.98;5.90;;;;;;;;;;2504170;55;21544;-80
2021/12/25 10:20:38;;;;;;;7.65;5.10;;;;;;;;;;2503674;55;21547;-82
2021/12/25 10:23:08;;;;;;;9.23;4.82;;;;;;;;;;2273042;59;21048;-80
2021/12/25 10:25:38;;;;;;;7.05;4.82;;;;;;;;;;2272513;59;21063;-81
2021/12/25 10:28:07;;;;;;;8.20;5.45;;;;;;;;;;2273058;59;21126;-81
2021/12/25 10:30:44;;;;;;;9.38;5.95;;;;;;;;;;2503823;55;21169;-80
2021/12/25 10:33:23;;;;;;;13.05;5.18;;;;;;;;;;2272833;59;21543;-80
2021/12/25 10:35:50;;;;;;;6.00;4.55;;;;;;;;;;2273291;59;21154;-80
2021/12/25 10:38:17;;;;;;;7.80;5.47;;;;;;;;;;2504099;55;21063;-81
2021/12/25 10:40:44;;;;;;;6.75;4.65;;;;;;;;;;2272745;59;21067;-81
2021/12/25 10:43:20;;;;;;;7.50;4.93;;;;;;;;;;2272569;59;21626;-81
2021/12/25 10:45:58;;;;;;;17.20;7.97;;;;;;;;;;2504073;55;21135;-81
2021/12/25 10:48:28;;;;;;;13.43;6.20;;;;;;;;;;2273051;59;21135;-81
2021/12/25 10:50:55;;;;;;;13.85;6.87;;;;;;;;;;2272524;59;21126;-81
2021/12/25 10:53:23;;;;;;;16.05;6.85;;;;;;;;;;2272678;59;21051;-80
2021/12/25 10:55:50;;;;;;;9.30;6.18;;;;;;;;;;2273041;59;21583;-80
2021/12/25 10:58:21;;;;;;;12.73;7.57;;;;;;;;;;2273113;59;21134;-82
2021/12/25 11:00:54;;;;;;;11.27;6.87;;;;;;;;;;2503551;55;21122;-82
2021/12/25 11:03:28;;;;;;;10.93;6.07;;;;;;;;;;2273030;59;21055;-81
2021/12/25 11:05:55;;;;;;;7.20;5.20;;;;;;;;;;2272789;59;21051;-82
2021/12/25 11:08:23;;;;;;;8.82;4.80;;;;;;;;;;2272711;59;21121;-81
2021/12/25 11:13:21;;;;;;;6.65;4.05;;;;;;;;;;2362482;57;21041;-76
2021/12/25 11:15:48;;;;;;;7.47;4.60;;;;;;;;;;2362691;57;21102;-79
2021/12/25 11:18:16;;;;;;;10.30;4.12;;;;;;;;;;2452028;53;21064;-78
2021/12/25 11:20:45;;;;;;;7.50;3.75;;;;;;;;;;2390112;56;21026;-78
2021/12/25 11:23:14;;;;;;;4.78;3.58;;;;;;;;;;2390695;56;21026;-79
2021/12/25 11:25:41;;;;;;;5.37;3.37;;;;;;;;;;2411779;52;21014;-79
2021/12/25 11:28:10;;;;;;;5.85;3.33;;;;;;;;;;2418641;52;21038;-77
2021/12/25 11:30:39;;;;;;;7.70;4.20;;;;;;;;;;2390463;56;21094;-76
2021/12/25 11:33:06;;;;;;;5.10;3.05;;;;;;;;;;2409947;52;21592;-80
2021/12/25 11:35:34;;;;;;;4.60;2.60;;;;;;;;;;2390931;56;21091;-79
2021/12/25 11:38:02;;;;;;;4.78;2.65;;;;;;;;;;2390558;56;21544;-79
2021/12/25 11:40:30;;;;;;;6.50;2.58;;;;;;;;;;2390193;56;21089;-78
2021/12/25 11:43:00;;;;;;;3.72;2.60;;;;;;;;;;2390797;56;21616;-80
2021/12/25 11:45:29;;;;;;;8.10;2.80;;;;;;;;;;2390366;56;21034;-77
2021/12/25 11:47:57;;;;;;;4.80;3.05;;;;;;;;;;2390441;56;20999;-77
2021/12/25 11:50:34;;;;;;;9.73;3.42;;;;;;;;;;2389921;56;21564;-77
2021/12/25 11:53:06;;;;;;;7.15;3.00;;;;;;;;;;2423109;52;21022;-77
2021/12/25 11:56:04;;;;;;;8.52;3.53;;;;;;;;;;2392936;52;21063;-77
2021/12/25 11:58:39;;;;;;;6.80;3.08;;;;;;;;;;2390656;56;21011;-77
2021/12/25 12:01:17;;;;;;;5.95;2.50;;;;;;;;;;2390623;56;21022;-77
2021/12/25 12:03:46;;;;;;;5.95;2.80;;;;;;;;;;2395525;52;21082;-79
2021/12/25 12:06:13;;;;;;;2.20;2.00;;;;;;;;;;2390548;56;21010;-78
2021/12/25 12:08:58;;;;;;;3.50;2.40;;;;;;;;;;2390353;56;21086;-81
2021/12/25 12:11:26;;;;;;;3.90;2.50;;;;;;;;;;2390676;56;21083;-78
2021/12/25 12:14:12;;;;;;;3.22;2.50;;;;;;;;;;2451699;52;22711;-76
2021/12/25 12:16:40;;;;;;;5.05;2.80;;;;;;;;;;2390528;56;22107;-77
2021/12/25 12:19:41;;;;;;;10.98;3.40;;;;;;;;;;2488371;52;21050;-77
2021/12/25 12:22:34;;;;;;;3.25;2.60;;;;;;;;;;2543671;52;21019;-81
2021/12/25 12:25:21;;;;;;;3.92;2.92;;;;;;;;;;2390323;56;21015;-78
2021/12/25 12:27:52;;;;;;;7.55;3.10;;;;;;;;;;2390488;56;21022;-80
2021/12/25 12:30:50;;;;;;;6.15;2.55;;;;;;;;;;2390668;56;21018;-78
2021/12/25 12:33:31;;;;;;;4.25;2.35;;;;;;;;;;2323325;56;21010;-76
2021/12/25 12:35:59;;;;;;;10.73;3.05;;;;;;;;;;2390379;56;21022;-77
2021/12/25 12:38:28;;;;;;;5.18;2.62;;;;;;;;;;2447603;52;21042;-79
2021/12/25 12:41:16;;;;;;;6.93;3.17;;;;;;;;;;2390114;56;21077;-77
2021/12/25 12:43:57;;;;;;;6.75;3.10;;;;;;;;;;2390427;56;21101;-79
2021/12/25 12:46:25;;;;;;;9.38;3.42;;;;;;;;;;2390527;56;21026;-77
2021/12/25 12:49:05;;;;;;;7.65;3.47;;;;;;;;;;2389862;56;21077;-76
2021/12/25 12:51:32;;;;;;;8.63;3.83;;;;;;;;;;2481945;52;21597;-76
2021/12/25 12:53:59;;;;;;;4.22;3.30;;;;;;;;;;2451643;52;21122;-78
2021/12/25 12:56:26;;;;;;;7.28;3.20;;;;;;;;;;2390350;56;21002;-76
2021/12/25 12:58:56;;;;;;;7.85;3.25;;;;;;;;;;2389983;56;21033;-78
2021/12/25 13:01:24;;;;;;;8.88;3.90;;;;;;;;;;2390262;56;21014;-77
2021/12/25 13:03:56;;;;;;;9.05;3.95;;;;;;;;;;2390151;56;21031;-75
2021/12/25 13:06:26;;;;;;;4.62;3.55;;;;;;;;;;2395824;52;21022;-76
2021/12/25 13:08:53;;;;;;;5.05;3.00;;;;;;;;;;2389581;56;21516;-77
2021/12/25 13:11:24;;;;;;;8.10;4.18;;;;;;;;;;2390390;56;21097;-76
2021/12/25 13:13:54;;;;;;;4.70;3.22;;;;;;;;;;2390065;56;21030;-77
2021/12/25 13:16:23;;;;;;;6.37;3.60;;;;;;;;;;2390330;52;21034;-77
2021/12/25 13:18:51;;;;;;;6.70;3.13;;;;;;;;;;2413249;52;21022;-75
2021/12/25 13:21:22;;;;;;;6.37;3.42;;;;;;;;;;2396279;52;21603;-77
2021/12/25 13:23:52;;;;;;;7.32;3.15;;;;;;;;;;2390474;53;21010;-77
2021/12/25 13:26:20;;;;;;;6.35;3.42;;;;;;;;;;2389970;56;21006;-76
2021/12/25 13:28:48;;;;;;;8.13;3.67;;;;;;;;;;2389725;56;21030;-77
2021/12/25 13:31:18;;;;;;;7.55;4.53;;;;;;;;;;2390726;52;21209;-76
2021/12/25 13:33:46;;;;;;;9.27;4.80;;;;;;;;;;2410093;52;21153;-77
2021/12/25 13:36:15;;;;;;;20.62;4.22;;;;;;;;;;2390412;56;21583;-76
2021/12/25 13:38:51;;;;;;;8.45;3.60;;;;;;;;;;2389384;56;21609;-78
2021/12/25 13:41:28;;;;;;;4.97;3.15;;;;;;;;;;2390999;56;21026;-77
2021/12/25 13:44:04;;;;;;;6.32;3.25;;;;;;;;;;2391589;52;21596;-77
2021/12/25 13:46:36;;;;;;;6.20;2.83;;;;;;;;;;2390642;56;21537;-76
2021/12/25 13:49:03;;;;;;;3.95;2.78;;;;;;;;;;2390548;56;21086;-79
2021/12/25 13:51:30;;;;;;;8.18;3.95;;;;;;;;;;2390366;56;21093;-76
2021/12/25 13:53:57;;;;;;;11.68;4.75;;;;;;;;;;2390049;56;21521;-78
2021/12/25 13:56:25;;;;;;;10.20;5.47;;;;;;;;;;2390307;54;21093;-76
2021/12/25 13:58:52;;;;;;;8.75;5.10;;;;;;;;;;2390024;56;21579;-77
2021/12/25 14:01:19;;;;;;;9.02;5.10;;;;;;;;;;2390354;56;21011;-75
2021/12/25 14:03:46;;;;;;;10.32;4.85;;;;;;;;;;2413694;52;21526;-76
2021/12/25 14:06:13;;;;;;;9.50;4.65;;;;;;;;;;2390402;56;21082;-76
2021/12/25 14:08:40;;;;;;;9.20;4.50;;;;;;;;;;2537429;52;21612;-78
2021/12/25 14:11:08;;;;;;;10.55;4.12;;;;;;;;;;2397111;52;21527;-77
2021/12/25 14:13:36;;;;;;;7.90;4.50;;;;;;;;;;2477731;52;21054;-77
2021/12/25 14:16:03;;;;;;;8.10;4.85;;;;;;;;;;2390033;56;21114;-77
2021/12/25 14:18:33;;;;;;;11.68;5.60;;;;;;;;;;2390398;56;21072;-78
2021/12/25 14:21:13;;;;;;;14.75;6.22;;;;;;;;;;2390094;56;21501;-76
2021/12/25 14:23:40;;;;;;;10.00;6.32;;;;;;;;;;2414705;52;21021;-77
2021/12/25 14:26:07;;;;;;;11.00;5.53;;;;;;;;;;2491086;52;21639;-79
2021/12/25 14:28:35;;;;;;;9.10;4.53;;;;;;;;;;2390245;56;21533;-75
2021/12/25 14:31:03;;;;;;;10.32;4.20;;;;;;;;;;2444626;52;21061;-75
2021/12/25 14:33:32;;;;;;;6.93;4.60;;;;;;;;;;2425847;52;21505;-78
2021/12/25 14:35:59;;;;;;;10.10;5.22;;;;;;;;;;2403293;52;21647;-75
2021/12/25 14:38:26;;;;;;;9.45;5.57;;;;;;;;;;2389627;56;21030;-75
2021/12/25 14:40:53;;;;;;;14.45;6.53;;;;;;;;;;2389905;56;21086;-74
2021/12/25 14:43:27;;;;;;;8.88;5.55;;;;;;;;;;2390179;56;21627;-74
2021/12/25 14:45:55;;;;;;;9.50;6.03;;;;;;;;;;2390128;56;21536;-75
2021/12/25 14:48:27;;;;;;;17.35;8.63;;;;;;;;;;2390028;56;21920;-76
2021/12/25 14:50:55;;;;;;;18.30;10.35;;;;;;;;;;2448731;52;21506;-75
2021/12/25 14:53:22;;;;;;;20.17;10.82;;;;;;;;;;2390458;56;21045;-74
2021/12/25 14:55:50;;;;;;;13.18;8.48;;;;;;;;;;2389715;56;21011;-76
2021/12/25 14:58:19;;;;;;;12.15;8.15;;;;;;;;;;2390414;56;21026;-75
2021/12/25 15:00:47;;;;;;;14.70;10.05;;;;;;;;;;2413058;52;21105;-75
2021/12/25 15:03:16;;;;;;;19.60;11.52;;;;;;;;;;2390221;56;21100;-74
2021/12/25 15:05:45;;;;;;;19.75;10.13;;;;;;;;;;2389932;56;21014;-75
2021/12/25 15:08:19;;;;;;;16.08;10.07;;;;;;;;;;2390243;56;21497;-74
2021/12/25 15:10:46;;;;;;;17.85;10.15;;;;;;;;;;2390024;56;21034;-74
2021/12/25 15:13:14;;;;;;;18.67;9.65;;;;;;;;;;2390353;54;21026;-75
2021/12/25 15:15:47;;;;;;;17.45;8.65;;;;;;;;;;2390228;56;21018;-75
2021/12/25 15:18:20;;;;;;;13.13;8.57;;;;;;;;;;2389839;56;21853;-75
2021/12/25 15:20:47;;;;;;;17.40;9.27;;;;;;;;;;2389851;56;21111;-75
2021/12/25 15:23:17;;;;;;;18.45;9.27;;;;;;;;;;2389740;56;21106;-74
2021/12/25 15:25:44;;;;;;;27.50;13.27;;;;;;;;;;2390287;56;21051;-74
2021/12/25 15:28:11;;;;;;;27.52;14.10;;;;;;;;;;2390667;56;21006;-82
2021/12/25 15:30:39;;;;;;;22.48;12.98;;;;;;;;;;2389887;53;21104;-77
2021/12/25 15:33:07;;;;;;;23.40;13.10;;;;;;;;;;2390440;56;21078;-78
2021/12/25 15:35:35;;;;;;;23.38;12.88;;;;;;;;;;2459939;52;21065;-76
2021/12/25 15:38:03;;;;;;;19.48;11.60;;;;;;;;;;2390355;56;21517;-77
2021/12/25 15:40:31;;;;;;;20.40;11.85;;;;;;;;;;2390451;56;21090;-76
2021/12/25 15:42:58;;;;;;;17.70;10.25;;;;;;;;;;2389883;56;21089;-82
2021/12/25 15:45:26;;;;;;;17.87;9.88;;;;;;;;;;2393602;52;21509;-75